createdAt,value
2023-04-30T00:01:55.954Z,99.90
2023-04-30T00:04:28.256Z,99.90
2023-04-30T00:07:01.344Z,99.90
2023-04-30T00:09:33.795Z,99.90
2023-04-30T00:12:06.260Z,99.90
2023-04-30T00:14:38.553Z,99.90
2023-04-30T00:17:10.714Z,99.90
2023-04-30T00:19:43.766Z,99.90
2023-04-30T00:22:15.833Z,99.90
2023-04-30T00:24:48.398Z,99.90
2023-04-30T00:27:20.481Z,99.90
2023-04-30T00:29:52.831Z,99.90
2023-04-30T00:32:25.401Z,99.90
2023-04-30T00:34:57.601Z,99.90
2023-04-30T00:37:30.195Z,99.90
2023-04-30T00:40:02.492Z,99.90
2023-04-30T00:42:35.484Z,99.90
2023-04-30T00:45:08.644Z,99.90
2023-04-30T00:47:41.568Z,99.90
2023-04-30T00:50:16.260Z,99.90
2023-04-30T00:52:49.019Z,99.90
2023-04-30T00:55:21.786Z,99.90
2023-04-30T00:57:55.032Z,99.90
2023-04-30T01:00:28.237Z,99.90
2023-04-30T01:03:01.274Z,99.90
2023-04-30T01:05:33.488Z,99.90
2023-04-30T01:08:06.095Z,99.90
2023-04-30T01:11:08.590Z,99.90
2023-04-30T01:13:59.108Z,99.90
2023-04-30T01:16:41.843Z,99.90
2023-04-30T01:19:19.860Z,99.90
2023-04-30T01:21:53.686Z,99.90
2023-04-30T01:24:38.676Z,99.90
2023-04-30T01:27:30.489Z,99.90
2023-04-30T01:30:05.027Z,99.90
2023-04-30T01:32:37.490Z,99.90
2023-04-30T01:35:09.933Z,99.90
2023-04-30T01:38:19.495Z,99.90
2023-04-30T01:41:14.152Z,99.90
2023-04-30T01:44:01.391Z,99.90
2023-04-30T01:46:34.624Z,99.90
2023-04-30T01:49:19.741Z,99.90
2023-04-30T01:52:03.275Z,99.90
2023-04-30T01:54:59.428Z,99.90
2023-04-30T01:57:41.697Z,99.90
2023-04-30T02:00:15.252Z,99.90
2023-04-30T02:02:47.508Z,99.90
2023-04-30T02:05:19.788Z,99.90
2023-04-30T02:07:53.248Z,99.90
2023-04-30T02:10:27.132Z,99.90
2023-04-30T02:12:59.242Z,99.90
2023-04-30T02:15:32.266Z,99.90
2023-04-30T02:18:04.869Z,99.90
2023-04-30T02:20:37.045Z,99.90
2023-04-30T02:23:10.041Z,99.90
2023-04-30T02:25:42.309Z,99.90
2023-04-30T02:28:14.439Z,99.90
2023-04-30T02:30:46.628Z,99.90
2023-04-30T02:33:18.718Z,99.90
2023-04-30T02:35:51.330Z,99.90
2023-04-30T02:38:23.514Z,99.90
2023-04-30T02:40:56.725Z,99.90
2023-04-30T02:43:28.911Z,99.90
2023-04-30T02:46:01.258Z,99.90
2023-04-30T02:48:33.441Z,99.90
2023-04-30T02:51:05.777Z,99.90
2023-04-30T02:53:37.870Z,99.90
2023-04-30T02:56:10.304Z,99.90
2023-04-30T02:58:42.381Z,99.90
2023-04-30T03:01:15.121Z,99.90
2023-04-30T03:03:47.691Z,99.90
2023-04-30T03:06:19.983Z,99.90
2023-04-30T03:08:52.272Z,99.90
2023-04-30T03:11:25.312Z,99.90
2023-04-30T03:13:57.403Z,99.90
2023-04-30T03:16:31.310Z,99.90
2023-04-30T03:19:03.616Z,99.90
2023-04-30T03:21:35.744Z,99.90
2023-04-30T03:25:04.515Z,99.90
2023-04-30T03:27:37.676Z,99.90
2023-04-30T03:30:10.279Z,99.90
2023-04-30T03:32:42.882Z,99.90
2023-04-30T03:35:15.136Z,99.90
2023-04-30T03:37:47.750Z,99.90
2023-04-30T03:40:19.964Z,99.90
2023-04-30T03:42:53.197Z,99.90
2023-04-30T03:45:25.579Z,99.90
2023-04-30T03:47:57.858Z,99.90
2023-04-30T03:50:30.380Z,99.90
2023-04-30T03:53:02.555Z,99.90
2023-04-30T03:55:34.848Z,99.90
2023-04-30T03:58:07.310Z,99.90
2023-04-30T04:00:41.961Z,99.90
2023-04-30T04:03:18.276Z,99.90
2023-04-30T04:05:50.584Z,99.90
2023-04-30T04:08:23.725Z,99.90
2023-04-30T04:10:56.029Z,99.90
2023-04-30T04:13:28.301Z,99.90
2023-04-30T04:16:00.568Z,99.90
2023-04-30T04:18:32.685Z,99.90
2023-04-30T04:21:05.219Z,99.90
2023-04-30T04:23:37.470Z,99.90
2023-04-30T04:26:10.752Z,99.90
2023-04-30T04:28:43.120Z,99.90
2023-04-30T04:31:16.064Z,99.90
2023-04-30T04:33:48.416Z,99.90
2023-04-30T04:36:20.648Z,99.90
2023-04-30T04:38:52.972Z,99.90
2023-04-30T04:41:26.857Z,99.90
2023-04-30T04:44:03.720Z,99.90
2023-04-30T04:46:38.803Z,99.90
2023-04-30T04:49:11.369Z,99.90
2023-04-30T04:51:43.814Z,99.90
2023-04-30T04:54:16.095Z,99.90
2023-04-30T04:56:48.707Z,99.90
2023-04-30T04:59:21.150Z,99.90
2023-04-30T05:01:55.069Z,99.90
2023-04-30T05:04:28.167Z,99.90
2023-04-30T05:07:00.804Z,99.90
2023-04-30T05:09:32.990Z,99.90
2023-04-30T05:12:06.139Z,99.90
2023-04-30T05:14:38.456Z,99.90
2023-04-30T05:17:11.328Z,99.90
2023-04-30T05:19:43.557Z,99.90
2023-04-30T05:22:16.085Z,99.90
2023-04-30T05:24:48.691Z,99.90
2023-04-30T05:27:21.532Z,99.90
2023-04-30T05:29:53.839Z,99.90
2023-04-30T05:32:28.067Z,99.90
2023-04-30T05:35:00.341Z,99.90
2023-04-30T05:37:32.581Z,99.90
2023-04-30T05:40:06.545Z,99.90
2023-04-30T05:42:41.311Z,99.90
2023-04-30T05:45:16.150Z,99.90
2023-04-30T05:47:48.522Z,99.90
2023-04-30T05:50:20.719Z,99.90
2023-04-30T05:52:52.832Z,99.90
2023-04-30T05:55:25.015Z,99.90
2023-04-30T05:57:57.213Z,99.90
2023-04-30T06:00:29.312Z,99.90
2023-04-30T06:03:01.855Z,99.90
2023-04-30T06:05:34.267Z,99.90
2023-04-30T06:08:06.412Z,99.90
2023-04-30T06:10:39.327Z,99.90
2023-04-30T06:13:11.673Z,99.90
2023-04-30T06:15:43.829Z,99.90
2023-04-30T06:18:17.026Z,99.90
2023-04-30T06:20:49.336Z,99.90
2023-04-30T06:23:21.414Z,99.90
2023-04-30T06:25:53.658Z,99.90
2023-04-30T06:28:25.931Z,99.90
2023-04-30T06:30:58.379Z,99.90
2023-04-30T06:33:30.670Z,99.90
2023-04-30T06:36:02.947Z,99.90
2023-04-30T06:38:35.068Z,99.90
2023-04-30T06:41:07.177Z,99.90
2023-04-30T06:43:39.293Z,99.90
2023-04-30T06:46:11.796Z,99.90
2023-04-30T06:48:43.955Z,99.90
2023-04-30T06:51:16.248Z,99.90
2023-04-30T06:53:48.559Z,99.90
2023-04-30T06:56:22.226Z,99.90
2023-04-30T06:58:54.874Z,99.90
2023-04-30T07:01:27.419Z,99.90
2023-04-30T07:04:00.345Z,99.90
2023-04-30T07:06:32.795Z,99.90
2023-04-30T07:09:05.165Z,99.90
2023-04-30T07:11:37.274Z,99.90
2023-04-30T07:14:09.488Z,99.90
2023-04-30T07:16:41.685Z,99.90
2023-04-30T07:19:14.000Z,99.90
2023-04-30T07:21:46.496Z,99.90
2023-04-30T07:24:18.778Z,99.90
2023-04-30T07:26:51.126Z,99.90
2023-04-30T07:29:23.273Z,99.90
2023-04-30T07:31:56.821Z,99.90
2023-04-30T07:34:28.968Z,99.90
2023-04-30T07:37:01.530Z,99.90
2023-04-30T07:39:33.665Z,99.90
2023-04-30T07:42:06.848Z,99.90
2023-04-30T07:44:39.384Z,99.90
2023-04-30T07:47:12.044Z,99.90
2023-04-30T07:49:44.188Z,99.90
2023-04-30T07:52:16.266Z,99.90
2023-04-30T07:54:48.379Z,99.90
2023-04-30T07:57:20.722Z,99.90
2023-04-30T07:59:54.792Z,99.90
2023-04-30T08:02:27.698Z,99.90
2023-04-30T08:04:59.902Z,99.90
2023-04-30T08:07:32.068Z,99.90
2023-04-30T08:10:05.295Z,99.90
2023-04-30T08:12:37.652Z,99.90
2023-04-30T08:15:09.919Z,99.90
2023-04-30T08:17:42.552Z,99.90
2023-04-30T08:20:14.758Z,99.90
2023-04-30T08:22:46.966Z,99.40
2023-04-30T08:25:19.316Z,99.90
2023-04-30T08:27:51.662Z,99.30
2023-04-30T08:30:24.099Z,99.50
2023-04-30T08:32:57.830Z,97.00
2023-04-30T08:35:30.178Z,96.20
2023-04-30T08:38:02.324Z,96.10
2023-04-30T08:40:50.154Z,95.80
2023-04-30T08:43:24.484Z,94.60
2023-04-30T08:45:57.756Z,95.50
2023-04-30T08:48:31.476Z,96.00
2023-04-30T08:51:04.405Z,96.10
2023-04-30T08:53:40.548Z,96.10
2023-04-30T08:56:12.857Z,96.60
2023-04-30T08:58:45.492Z,97.50
2023-04-30T09:01:17.989Z,98.00
2023-04-30T09:03:50.786Z,97.90
2023-04-30T09:06:23.086Z,99.30
2023-04-30T09:08:55.442Z,97.10
2023-04-30T09:11:30.560Z,95.90
2023-04-30T09:14:03.511Z,96.20
2023-04-30T09:16:50.180Z,95.40
2023-04-30T09:19:31.338Z,95.70
2023-04-30T09:22:39.972Z,95.30
2023-04-30T09:25:12.302Z,95.60
2023-04-30T09:27:45.569Z,96.00
2023-04-30T09:30:30.941Z,95.60
2023-04-30T09:33:03.714Z,96.10
2023-04-30T09:35:41.877Z,95.00
2023-04-30T09:38:31.512Z,94.40
2023-04-30T09:41:03.643Z,94.80
2023-04-30T09:43:45.300Z,95.30
2023-04-30T09:46:20.885Z,94.70
2023-04-30T09:49:03.990Z,94.40
2023-04-30T09:51:53.434Z,95.20
2023-04-30T09:54:32.485Z,93.10
2023-04-30T09:57:05.071Z,92.50
2023-04-30T09:59:39.557Z,93.10
2023-04-30T10:02:15.428Z,92.90
2023-04-30T10:04:53.977Z,92.40
2023-04-30T10:07:39.072Z,92.30
2023-04-30T10:10:11.839Z,92.40
2023-04-30T10:12:51.651Z,92.70
2023-04-30T10:15:32.796Z,92.70
2023-04-30T10:18:09.295Z,92.90
2023-04-30T10:20:41.777Z,92.20
2023-04-30T10:23:14.641Z,91.80
2023-04-30T10:25:47.665Z,92.80
2023-04-30T10:28:20.261Z,92.80
2023-04-30T10:30:52.769Z,92.80
2023-04-30T10:33:58.797Z,93.30
2023-04-30T10:37:01.858Z,92.20
2023-04-30T10:39:36.398Z,91.00
2023-04-30T10:42:10.623Z,91.50
2023-04-30T10:44:42.944Z,91.90
2023-04-30T10:47:17.164Z,91.10
2023-04-30T10:49:53.652Z,91.20
2023-04-30T10:52:30.261Z,90.40
2023-04-30T10:55:07.795Z,89.80
2023-04-30T10:57:44.079Z,90.10
2023-04-30T11:00:20.654Z,88.50
2023-04-30T11:02:57.844Z,87.90
2023-04-30T11:05:39.040Z,83.60
2023-04-30T11:08:14.371Z,82.70
2023-04-30T11:11:09.102Z,80.90
2023-04-30T11:13:44.826Z,82.10
2023-04-30T11:16:17.377Z,83.00
2023-04-30T11:18:52.804Z,82.80
2023-04-30T11:21:26.228Z,80.70
2023-04-30T11:24:04.697Z,81.70
2023-04-30T11:27:06.156Z,79.90
2023-04-30T11:29:40.384Z,79.10
2023-04-30T11:32:13.446Z,79.20
2023-04-30T11:34:46.188Z,79.80
2023-04-30T11:37:30.538Z,77.30
2023-04-30T11:40:04.994Z,78.40
2023-04-30T11:42:39.740Z,78.40
2023-04-30T11:45:14.076Z,78.20
2023-04-30T11:47:55.509Z,79.10
2023-04-30T11:50:33.867Z,79.60
2023-04-30T11:53:06.313Z,80.80
2023-04-30T11:55:41.935Z,81.50
2023-04-30T11:58:14.072Z,81.70
2023-04-30T12:00:46.441Z,81.40
2023-04-30T12:03:18.863Z,82.40
2023-04-30T12:05:51.364Z,80.80
2023-04-30T12:08:24.383Z,81.70
2023-04-30T12:10:56.562Z,81.60
2023-04-30T12:13:31.789Z,81.10
2023-04-30T12:16:04.172Z,81.00
2023-04-30T12:18:36.614Z,81.80
2023-04-30T12:21:09.925Z,81.70
2023-04-30T12:23:42.710Z,81.60
2023-04-30T12:26:15.137Z,81.20
2023-04-30T12:28:49.957Z,81.20
2023-04-30T12:31:22.747Z,79.60
2023-04-30T12:33:57.213Z,79.50
2023-04-30T12:36:33.874Z,79.50
2023-04-30T12:39:07.840Z,79.80
2023-04-30T12:41:42.400Z,80.30
2023-04-30T12:44:18.375Z,77.30
2023-04-30T12:46:56.353Z,76.90
2023-04-30T12:49:30.577Z,76.70
2023-04-30T12:52:09.014Z,71.40
2023-04-30T12:54:42.243Z,70.70
2023-04-30T12:57:14.364Z,69.50
2023-04-30T12:59:53.027Z,69.80
2023-04-30T13:02:28.401Z,68.20
2023-04-30T13:05:00.599Z,67.50
2023-04-30T13:07:40.954Z,67.00
2023-04-30T13:10:13.984Z,66.90
2023-04-30T13:12:46.190Z,69.10
2023-04-30T13:15:18.901Z,68.40
2023-04-30T13:17:51.818Z,70.90
2023-04-30T13:20:25.264Z,68.30
2023-04-30T13:22:57.458Z,68.10
2023-04-30T13:25:30.010Z,69.50
2023-04-30T13:28:02.586Z,67.90
2023-04-30T13:30:35.167Z,68.80
2023-04-30T13:33:07.539Z,68.70
2023-04-30T13:35:39.954Z,68.30
2023-04-30T13:38:12.188Z,68.30
2023-04-30T13:40:44.514Z,68.20
2023-04-30T13:43:17.068Z,68.90
2023-04-30T13:45:49.518Z,69.80
2023-04-30T13:48:21.767Z,69.40
2023-04-30T13:50:55.137Z,67.90
2023-04-30T13:53:27.472Z,67.40
2023-04-30T13:55:59.782Z,67.60
2023-04-30T13:58:32.137Z,68.30
2023-04-30T14:01:04.399Z,66.20
2023-04-30T14:03:37.685Z,66.80
2023-04-30T14:06:10.136Z,66.50
2023-04-30T14:08:42.443Z,68.80
2023-04-30T14:11:14.573Z,68.50
2023-04-30T14:13:47.023Z,68.80
2023-04-30T14:16:20.036Z,68.80
2023-04-30T14:18:52.396Z,68.80
2023-04-30T14:21:24.491Z,68.70
2023-04-30T14:23:56.818Z,68.60
2023-04-30T14:26:29.024Z,69.40
2023-04-30T14:29:01.343Z,67.90
2023-04-30T14:31:33.779Z,68.60
2023-04-30T14:34:06.583Z,66.30
2023-04-30T14:36:39.169Z,65.10
2023-04-30T14:39:11.320Z,63.60
2023-04-30T14:41:43.593Z,63.90
2023-04-30T14:44:16.278Z,63.60
2023-04-30T14:46:48.874Z,65.10
2023-04-30T14:49:21.110Z,66.30
2023-04-30T14:51:53.415Z,66.90
2023-04-30T14:54:25.685Z,67.30
2023-04-30T14:56:58.166Z,68.70
2023-04-30T14:59:30.541Z,67.80
2023-04-30T15:02:02.735Z,68.90
2023-04-30T15:04:34.953Z,69.20
2023-04-30T15:07:07.105Z,68.50
2023-04-30T15:09:41.174Z,69.10
2023-04-30T15:12:15.410Z,69.40
2023-04-30T15:14:47.578Z,69.10
2023-04-30T15:17:19.881Z,68.90
2023-04-30T15:19:53.861Z,69.10
2023-04-30T15:22:26.173Z,69.00
2023-04-30T15:24:59.336Z,68.50
2023-04-30T15:27:33.682Z,69.20
2023-04-30T15:30:07.573Z,67.70
2023-04-30T15:32:39.688Z,67.70
2023-04-30T15:35:11.826Z,67.10
2023-04-30T15:37:45.083Z,66.70
2023-04-30T15:40:17.180Z,68.50
2023-04-30T15:42:50.340Z,68.20
2023-04-30T15:45:25.400Z,68.80
2023-04-30T15:47:57.663Z,68.50
2023-04-30T15:50:31.228Z,68.40
2023-04-30T15:53:03.279Z,67.90
2023-04-30T15:55:36.878Z,68.30
2023-04-30T15:58:09.248Z,69.30
2023-04-30T16:00:42.117Z,69.20
2023-04-30T16:03:14.324Z,69.00
2023-04-30T16:05:46.819Z,69.00
2023-04-30T16:08:19.027Z,69.00
2023-04-30T16:10:51.772Z,68.90
2023-04-30T16:13:24.025Z,69.80
2023-04-30T16:15:56.310Z,70.10
2023-04-30T16:18:30.072Z,69.60
2023-04-30T16:21:02.556Z,70.30
2023-04-30T16:23:35.152Z,69.80
2023-04-30T16:26:07.366Z,69.20
2023-04-30T16:28:39.412Z,68.10
2023-04-30T16:31:13.209Z,68.70
2023-04-30T16:33:45.348Z,68.50
2023-04-30T16:36:18.304Z,68.90
2023-04-30T16:38:50.502Z,69.10
2023-04-30T16:41:22.635Z,69.80
2023-04-30T16:43:55.103Z,68.60
2023-04-30T16:46:28.483Z,68.70
2023-04-30T16:49:00.655Z,68.00
2023-04-30T16:51:33.694Z,68.50
2023-04-30T16:54:05.984Z,69.10
2023-04-30T16:56:38.589Z,69.50
2023-04-30T16:59:11.209Z,70.10
2023-04-30T17:01:43.576Z,70.70
2023-04-30T17:04:16.079Z,70.70
2023-04-30T17:06:48.280Z,71.20
2023-04-30T17:09:20.606Z,71.20
2023-04-30T17:11:53.249Z,71.60
2023-04-30T17:14:25.786Z,71.90
2023-04-30T17:16:58.634Z,72.40
2023-04-30T17:19:30.892Z,72.30
2023-04-30T17:22:03.412Z,73.00
2023-04-30T17:24:35.976Z,73.00
2023-04-30T17:27:08.498Z,72.80
2023-04-30T17:29:40.682Z,73.10
2023-04-30T17:32:12.833Z,73.40
2023-04-30T17:34:45.145Z,73.60
2023-04-30T17:37:17.907Z,73.80
2023-04-30T17:39:50.548Z,73.80
2023-04-30T17:42:23.083Z,73.90
2023-04-30T17:44:55.412Z,74.30
2023-04-30T17:47:27.788Z,74.10
2023-04-30T17:50:00.222Z,74.30
2023-04-30T17:52:35.713Z,75.00
2023-04-30T17:55:08.839Z,75.60
2023-04-30T17:57:41.018Z,76.10
2023-04-30T18:00:14.180Z,76.80
2023-04-30T18:02:47.005Z,77.30
2023-04-30T18:05:19.272Z,77.60
2023-04-30T18:07:51.475Z,78.40
2023-04-30T18:10:23.846Z,78.90
2023-04-30T18:12:58.390Z,79.20
2023-04-30T18:15:30.583Z,79.40
2023-04-30T18:18:02.972Z,80.10
2023-04-30T18:20:35.256Z,80.60
2023-04-30T18:23:09.801Z,80.70
2023-04-30T18:25:45.081Z,81.00
2023-04-30T18:28:17.474Z,81.90
2023-04-30T18:30:50.213Z,81.70
2023-04-30T18:33:22.541Z,82.10
2023-04-30T18:35:57.264Z,83.40
2023-04-30T18:38:29.341Z,82.80
2023-04-30T18:41:02.533Z,83.00
2023-04-30T18:43:37.212Z,83.20
2023-04-30T18:46:09.364Z,83.50
2023-04-30T18:48:41.482Z,83.50
2023-04-30T18:51:13.605Z,84.10
2023-04-30T18:53:47.776Z,84.50
2023-04-30T18:56:19.920Z,84.90
2023-04-30T18:58:52.123Z,85.60
2023-04-30T19:01:27.574Z,85.70
2023-04-30T19:03:59.807Z,86.10
2023-04-30T19:06:33.599Z,86.50
2023-04-30T19:09:06.496Z,86.90
2023-04-30T19:11:38.664Z,87.00
2023-04-30T19:14:11.872Z,87.50
2023-04-30T19:16:44.813Z,87.70
2023-04-30T19:19:17.665Z,88.30
2023-04-30T19:21:49.814Z,87.70
2023-04-30T19:24:22.791Z,87.50
2023-04-30T19:26:55.719Z,88.30
2023-04-30T19:29:29.619Z,87.90
2023-04-30T19:32:04.663Z,88.40
2023-04-30T19:34:36.951Z,88.50
2023-04-30T19:37:09.646Z,88.60
2023-04-30T19:39:41.875Z,88.90
2023-04-30T19:42:13.963Z,88.70
2023-04-30T19:44:46.024Z,89.10
2023-04-30T19:47:18.364Z,89.20
2023-04-30T19:49:51.529Z,90.00
2023-04-30T19:52:23.908Z,90.20
2023-04-30T19:54:56.172Z,90.10
2023-04-30T19:57:32.063Z,89.70
2023-04-30T20:00:04.953Z,90.10
2023-04-30T20:02:39.127Z,90.00
2023-04-30T20:05:12.014Z,90.30
2023-04-30T20:07:44.129Z,90.70
2023-04-30T20:10:17.288Z,90.50
2023-04-30T20:12:53.691Z,90.90
2023-04-30T20:15:26.343Z,90.70
2023-04-30T20:17:59.431Z,90.40
2023-04-30T20:20:31.893Z,90.80
2023-04-30T20:23:15.334Z,91.10
2023-04-30T20:25:48.025Z,91.20
2023-04-30T20:28:20.482Z,91.60
2023-04-30T20:30:52.574Z,91.90
2023-04-30T20:33:26.835Z,92.10
2023-04-30T20:35:59.973Z,92.30
2023-04-30T20:38:32.066Z,92.70
2023-04-30T20:41:04.211Z,93.00
2023-04-30T20:43:36.810Z,93.80
2023-04-30T20:46:09.184Z,94.00
2023-04-30T20:48:41.612Z,94.30
2023-04-30T20:51:16.149Z,94.60
2023-04-30T20:53:48.545Z,94.20
2023-04-30T20:56:21.411Z,94.70
2023-04-30T20:58:54.705Z,94.90
2023-04-30T21:01:27.943Z,94.90
2023-04-30T21:04:00.898Z,95.50
2023-04-30T21:06:33.667Z,95.40
2023-04-30T21:09:06.460Z,95.70
2023-04-30T21:11:39.423Z,96.20
2023-04-30T21:14:12.166Z,96.40
2023-04-30T21:16:44.892Z,96.80
2023-04-30T21:19:17.595Z,97.10
2023-04-30T21:21:49.762Z,97.40
2023-04-30T21:24:21.928Z,97.90
2023-04-30T21:26:54.273Z,98.30
2023-04-30T21:29:26.782Z,98.20
2023-04-30T21:31:59.018Z,99.10
2023-04-30T21:34:32.172Z,99.20
2023-04-30T21:37:04.428Z,99.20
2023-04-30T21:39:36.498Z,99.70
2023-04-30T21:42:08.822Z,99.80
2023-04-30T21:44:41.217Z,99.90
2023-04-30T21:47:13.315Z,99.90
2023-04-30T21:49:45.579Z,99.90
2023-04-30T21:52:17.721Z,98.70
2023-04-30T21:54:50.476Z,99.10
2023-04-30T21:57:22.549Z,99.00
2023-04-30T21:59:54.843Z,98.70
2023-04-30T22:02:30.338Z,99.20
2023-04-30T22:05:02.608Z,99.90
2023-04-30T22:07:35.186Z,99.90
2023-04-30T22:10:08.883Z,99.90
2023-04-30T22:12:43.321Z,99.90
2023-04-30T22:15:17.767Z,99.90
2023-04-30T22:17:50.197Z,99.90
2023-04-30T22:20:22.808Z,99.90
2023-04-30T22:22:55.989Z,99.90
2023-04-30T22:25:28.075Z,99.90
2023-04-30T22:28:00.190Z,99.90
2023-04-30T22:30:32.738Z,99.90
2023-04-30T22:33:05.187Z,99.90
2023-04-30T22:35:40.588Z,99.90
2023-04-30T22:38:12.987Z,99.90
2023-04-30T22:40:46.124Z,99.80
2023-04-30T22:43:18.453Z,99.50
2023-04-30T22:45:51.275Z,99.70
2023-04-30T22:48:23.768Z,99.40
2023-04-30T22:50:58.106Z,99.40
2023-04-30T22:53:30.325Z,99.90
2023-04-30T22:56:02.438Z,99.90
2023-04-30T22:58:34.982Z,99.90
2023-04-30T23:01:07.190Z,99.90
2023-04-30T23:03:39.482Z,99.90
2023-04-30T23:06:12.011Z,99.90
2023-04-30T23:08:44.740Z,99.90
2023-04-30T23:11:17.144Z,99.90
2023-04-30T23:13:50.235Z,99.90
2023-04-30T23:16:23.128Z,99.90
2023-04-30T23:18:55.633Z,99.90
2023-04-30T23:21:28.138Z,99.90
2023-04-30T23:24:00.830Z,99.90
2023-04-30T23:26:33.000Z,99.90
2023-04-30T23:29:05.140Z,99.90
2023-04-30T23:31:37.897Z,99.90
2023-04-30T23:34:09.991Z,99.90
2023-04-30T23:36:42.262Z,99.90
2023-04-30T23:39:14.875Z,99.90
2023-04-30T23:41:46.970Z,99.90
2023-04-30T23:44:19.119Z,99.90
2023-04-30T23:46:51.687Z,99.90
2023-04-30T23:49:25.177Z,99.90
2023-04-30T23:51:57.894Z,99.90
2023-04-30T23:54:30.233Z,99.90
2023-04-30T23:57:02.365Z,99.90
2023-04-30T23:59:34.450Z,99.90
